Time;durP1;ratioP1;P1;durP2;ratioP2;P2;SDS_P1;SDS_P2;PMS_P1;PMS_P2;Temp;Humidity;BMP_temperature;BMP_pressure;BME280_temperature;BME280_humidity;BME280_pressure;Samples;Min_cycle;Max_cycle;Signal;HPM_P1;HPM_P2
2023/11/25 00:02:17;;;;;;;;;;;7.10;99.90;;;;;;5014646;28;19913;-74
2023/11/25 00:04:43;;;;;;;;;;;7.10;99.90;;;;;;5014780;28;20392;-74
2023/11/25 00:07:08;;;;;;;;;;;7.10;99.90;;;;;;5015080;28;19924;-74
2023/11/25 00:09:34;;;;;;;;;;;7.10;99.90;;;;;;5015079;28;20415;-74
2023/11/25 00:11:59;;;;;;;;;;;7.20;99.90;;;;;;5013312;28;19959;-74
2023/11/25 00:14:25;;;;;;;;;;;7.30;99.90;;;;;;5014648;28;19910;-74
2023/11/25 00:16:50;;;;;;;;;;;7.30;99.90;;;;;;5014501;28;19914;-74
2023/11/25 00:19:16;;;;;;;;;;;7.30;99.90;;;;;;5014368;28;20284;-74
2023/11/25 00:21:42;;;;;;;;;;;7.30;99.90;;;;;;5013209;28;19910;-74
2023/11/25 00:24:08;;;;;;;;;;;7.20;99.90;;;;;;5013084;28;19914;-74
2023/11/25 00:26:33;;;;;;;;;;;7.20;99.90;;;;;;5014325;28;20012;-75
2023/11/25 00:28:58;;;;;;;;;;;7.20;99.90;;;;;;5014327;28;19909;-74
2023/11/25 00:31:24;;;;;;;;;;;7.10;99.90;;;;;;5014220;28;19918;-75
2023/11/25 00:33:50;;;;;;;;;;;7.10;99.90;;;;;;5014445;28;19909;-74
2023/11/25 00:36:15;;;;;;;;;;;7.00;99.90;;;;;;5014165;28;19914;-74
2023/11/25 00:38:41;;;;;;;;;;;7.00;99.90;;;;;;5029327;28;19955;-74
2023/11/25 00:41:06;;;;;;;;;;;6.90;99.90;;;;;;5014165;28;20373;-74
2023/11/25 00:43:32;;;;;;;;;;;6.90;99.90;;;;;;5014037;28;19910;-74
2023/11/25 00:45:58;;;;;;;;;;;6.80;99.90;;;;;;5013848;28;20020;-74
2023/11/25 00:48:23;;;;;;;;;;;6.70;99.90;;;;;;5014441;28;19910;-74
2023/11/25 00:50:49;;;;;;;;;;;6.70;99.90;;;;;;5013993;28;19913;-74
2023/11/25 00:53:15;;;;;;;;;;;6.60;99.90;;;;;;5011172;28;19933;-74
2023/11/25 00:55:41;;;;;;;;;;;6.60;99.90;;;;;;5009343;28;19910;-75
2023/11/25 00:58:07;;;;;;;;;;;6.60;99.90;;;;;;5013994;28;19916;-75
2023/11/25 01:00:32;;;;;;;;;;;6.60;99.90;;;;;;5014038;28;19909;-75
2023/11/25 01:02:58;;;;;;;;;;;6.60;99.90;;;;;;5012713;28;20281;-74
2023/11/25 01:05:23;;;;;;;;;;;6.60;99.90;;;;;;5012805;28;20001;-74
2023/11/25 01:07:49;;;;;;;;;;;6.50;99.90;;;;;;5013340;28;20004;-75
2023/11/25 01:10:15;;;;;;;;;;;6.50;99.90;;;;;;5013210;28;19968;-75
2023/11/25 01:12:41;;;;;;;;;;;6.50;99.90;;;;;;5013850;28;19949;-75
2023/11/25 01:15:07;;;;;;;;;;;6.50;99.90;;;;;;5012844;28;19910;-74
2023/11/25 01:17:32;;;;;;;;;;;6.50;99.90;;;;;;5013652;28;19964;-74
2023/11/25 01:19:58;;;;;;;;;;;6.50;99.90;;;;;;5013622;28;19917;-74
2023/11/25 01:22:24;;;;;;;;;;;6.50;99.90;;;;;;5012321;28;19910;-74
2023/11/25 01:24:53;;;;;;;;;;;6.50;99.90;;;;;;5013777;28;19910;-75
2023/11/25 01:27:18;;;;;;;;;;;6.40;99.90;;;;;;5013391;28;19967;-75
2023/11/25 01:29:44;;;;;;;;;;;6.40;99.90;;;;;;5013364;28;19935;-74
2023/11/25 01:32:09;;;;;;;;;;;6.40;99.90;;;;;;5013250;28;19918;-75
2023/11/25 01:34:35;;;;;;;;;;;6.30;99.90;;;;;;5013463;28;19909;-74
2023/11/25 01:37:00;;;;;;;;;;;6.30;99.90;;;;;;5013285;28;19953;-74
2023/11/25 01:39:26;;;;;;;;;;;6.20;99.90;;;;;;5013656;28;19909;-74
2023/11/25 01:41:52;;;;;;;;;;;6.20;99.90;;;;;;5013429;28;20372;-74
2023/11/25 01:44:17;;;;;;;;;;;6.20;99.90;;;;;;5010737;28;19972;-74
2023/11/25 01:46:43;;;;;;;;;;;6.10;99.90;;;;;;4993618;28;19918;-74
2023/11/25 01:49:10;;;;;;;;;;;6.10;99.90;;;;;;4993736;28;19914;-74
2023/11/25 01:51:38;;;;;;;;;;;6.00;99.90;;;;;;5008730;28;19910;-74
2023/11/25 01:54:04;;;;;;;;;;;6.00;99.90;;;;;;4998885;28;19914;-74
2023/11/25 01:56:30;;;;;;;;;;;6.00;99.90;;;;;;5013207;28;20380;-74
2023/11/25 01:58:57;;;;;;;;;;;5.90;99.90;;;;;;5012743;28;19916;-74
2023/11/25 02:01:24;;;;;;;;;;;5.90;99.90;;;;;;5012895;28;19948;-74
2023/11/25 02:03:49;;;;;;;;;;;5.80;99.90;;;;;;5013138;28;19916;-74
2023/11/25 02:06:15;;;;;;;;;;;5.80;99.90;;;;;;5013010;28;19918;-74
2023/11/25 02:08:42;;;;;;;;;;;5.70;99.90;;;;;;5013111;28;19910;-74
2023/11/25 02:11:08;;;;;;;;;;;5.70;99.90;;;;;;5013335;28;20440;-74
2023/11/25 02:13:34;;;;;;;;;;;5.60;99.90;;;;;;5013073;28;19932;-74
2023/11/25 02:15:59;;;;;;;;;;;5.50;99.90;;;;;;5012919;28;20360;-75
2023/11/25 02:18:25;;;;;;;;;;;5.50;99.90;;;;;;5014985;28;19913;-74
2023/11/25 02:20:50;;;;;;;;;;;5.50;99.90;;;;;;5016613;28;19917;-74
2023/11/25 02:23:17;;;;;;;;;;;5.40;99.90;;;;;;5016613;28;20330;-74
2023/11/25 02:25:47;;;;;;;;;;;5.40;99.90;;;;;;5016581;28;20365;-74
2023/11/25 02:28:14;;;;;;;;;;;5.40;99.90;;;;;;5016589;28;19909;-75
2023/11/25 02:30:39;;;;;;;;;;;5.40;99.90;;;;;;5016299;28;19909;-75
2023/11/25 02:33:07;;;;;;;;;;;5.30;99.90;;;;;;5015458;28;20340;-74
2023/11/25 02:35:32;;;;;;;;;;;5.30;99.90;;;;;;5016803;28;20004;-74
2023/11/25 02:37:58;;;;;;;;;;;5.20;99.90;;;;;;5016185;28;20416;-74
2023/11/25 02:40:24;;;;;;;;;;;5.20;99.90;;;;;;5016646;28;19915;-74
2023/11/25 02:42:50;;;;;;;;;;;5.20;99.90;;;;;;5016362;28;20364;-74
2023/11/25 02:45:19;;;;;;;;;;;5.20;99.90;;;;;;5016443;28;19960;-74
2023/11/25 02:47:45;;;;;;;;;;;5.20;99.90;;;;;;5016377;28;19925;-74
2023/11/25 02:50:11;;;;;;;;;;;5.20;99.90;;;;;;5016061;28;19933;-74
2023/11/25 02:52:37;;;;;;;;;;;5.20;99.90;;;;;;5015593;28;20372;-74
2023/11/25 02:55:02;;;;;;;;;;;5.20;99.90;;;;;;5010126;28;19913;-75
2023/11/25 02:57:28;;;;;;;;;;;5.20;99.90;;;;;;5016163;28;20388;-74
2023/11/25 02:59:55;;;;;;;;;;;5.10;99.90;;;;;;5003120;28;20472;-74
2023/11/25 03:02:20;;;;;;;;;;;5.20;99.90;;;;;;4997416;28;19909;-75
2023/11/25 03:04:47;;;;;;;;;;;5.10;99.90;;;;;;5015187;28;19917;-74
2023/11/25 03:07:13;;;;;;;;;;;5.10;99.90;;;;;;5015835;28;19924;-75
2023/11/25 03:09:39;;;;;;;;;;;5.10;99.90;;;;;;5016055;28;19909;-74
2023/11/25 03:12:05;;;;;;;;;;;5.10;99.90;;;;;;5015791;28;19999;-75
2023/11/25 03:14:31;;;;;;;;;;;5.00;99.90;;;;;;5016059;28;19917;-74
2023/11/25 03:16:57;;;;;;;;;;;5.00;99.90;;;;;;5015557;28;19917;-74
2023/11/25 03:19:23;;;;;;;;;;;5.00;99.90;;;;;;5015715;28;19920;-75
2023/11/25 03:21:50;;;;;;;;;;;5.00;99.90;;;;;;5014389;28;19968;-74
2023/11/25 03:24:16;;;;;;;;;;;5.00;99.90;;;;;;5015574;28;19913;-74
2023/11/25 03:26:43;;;;;;;;;;;5.00;99.90;;;;;;5015204;28;19914;-74
2023/11/25 03:29:09;;;;;;;;;;;5.00;99.90;;;;;;5015156;28;19920;-74
2023/11/25 03:31:44;;;;;;;;;;;4.90;99.90;;;;;;5014989;28;20296;-74
2023/11/25 03:34:10;;;;;;;;;;;4.90;99.90;;;;;;5015526;28;20000;-74
2023/11/25 03:36:35;;;;;;;;;;;4.90;99.90;;;;;;5015718;28;19956;-74
2023/11/25 03:39:01;;;;;;;;;;;4.90;99.90;;;;;;5015296;28;19956;-74
2023/11/25 03:41:28;;;;;;;;;;;4.90;99.90;;;;;;5015100;28;19910;-74
2023/11/25 03:43:53;;;;;;;;;;;4.90;99.90;;;;;;5015234;28;19913;-74
2023/11/25 03:46:19;;;;;;;;;;;4.80;99.90;;;;;;5015029;28;20012;-74
2023/11/25 03:48:45;;;;;;;;;;;4.80;99.90;;;;;;5015156;28;19940;-74
2023/11/25 03:51:10;;;;;;;;;;;4.70;99.90;;;;;;5015118;28;19916;-75
2023/11/25 03:53:36;;;;;;;;;;;4.70;99.90;;;;;;5009442;28;19943;-74
2023/11/25 03:56:01;;;;;;;;;;;4.70;99.90;;;;;;5012524;28;20303;-74
2023/11/25 03:58:27;;;;;;;;;;;4.60;99.90;;;;;;5014805;28;19914;-74
2023/11/25 04:00:53;;;;;;;;;;;4.60;99.90;;;;;;5015255;28;19916;-74
2023/11/25 04:03:18;;;;;;;;;;;4.60;99.90;;;;;;5012477;28;20503;-75
2023/11/25 04:05:44;;;;;;;;;;;4.60;99.90;;;;;;5014701;28;20016;-74
2023/11/25 04:08:09;;;;;;;;;;;4.60;99.90;;;;;;5014813;28;19909;-74
2023/11/25 04:10:36;;;;;;;;;;;4.50;99.90;;;;;;5014632;28;19917;-74
2023/11/25 04:13:02;;;;;;;;;;;4.40;99.90;;;;;;5014688;28;19910;-74
2023/11/25 04:15:28;;;;;;;;;;;4.40;99.90;;;;;;5014566;28;19910;-74
2023/11/25 04:17:53;;;;;;;;;;;4.40;99.90;;;;;;5014607;28;19913;-74
2023/11/25 04:20:28;;;;;;;;;;;4.40;99.90;;;;;;5014433;28;20399;-74
2023/11/25 04:22:54;;;;;;;;;;;4.30;99.90;;;;;;5014457;28;19917;-74
2023/11/25 04:25:20;;;;;;;;;;;4.30;99.90;;;;;;5013223;28;20288;-75
2023/11/25 04:27:49;;;;;;;;;;;4.30;99.90;;;;;;5014110;28;19914;-75
2023/11/25 04:30:18;;;;;;;;;;;4.20;99.90;;;;;;5013021;28;19920;-74
2023/11/25 04:32:45;;;;;;;;;;;4.20;99.90;;;;;;5014210;28;20004;-74
2023/11/25 04:35:10;;;;;;;;;;;4.20;99.90;;;;;;5014352;28;19917;-74
2023/11/25 04:37:37;;;;;;;;;;;4.20;99.90;;;;;;5014228;28;19913;-74
2023/11/25 04:40:11;;;;;;;;;;;4.20;99.90;;;;;;5013726;28;19916;-75
2023/11/25 04:42:37;;;;;;;;;;;4.20;99.90;;;;;;5012528;28;19920;-74
2023/11/25 04:45:03;;;;;;;;;;;4.10;99.90;;;;;;5014310;28;20326;-74
2023/11/25 04:47:28;;;;;;;;;;;4.10;99.90;;;;;;5014055;28;20463;-74
2023/11/25 04:49:54;;;;;;;;;;;4.10;99.90;;;;;;5014093;28;19910;-74
2023/11/25 04:52:20;;;;;;;;;;;4.10;99.90;;;;;;5014002;28;20280;-75
2023/11/25 04:54:46;;;;;;;;;;;4.10;99.90;;;;;;5006441;28;19913;-75
2023/11/25 04:57:12;;;;;;;;;;;4.10;99.90;;;;;;5013903;28;19917;-74
2023/11/25 04:59:38;;;;;;;;;;;4.00;99.90;;;;;;5012324;28;20332;-74
2023/11/25 05:02:05;;;;;;;;;;;4.00;99.90;;;;;;5014193;28;19917;-74
2023/11/25 05:04:30;;;;;;;;;;;3.90;99.90;;;;;;5012658;28;19917;-75
2023/11/25 05:06:56;;;;;;;;;;;3.90;99.90;;;;;;5014160;28;19917;-75
2023/11/25 05:09:25;;;;;;;;;;;3.90;99.90;;;;;;5012333;28;20289;-74
2023/11/25 05:11:52;;;;;;;;;;;3.90;99.90;;;;;;5013807;28;20039;-74
2023/11/25 05:14:18;;;;;;;;;;;3.90;99.90;;;;;;5013676;28;19913;-74
2023/11/25 05:16:43;;;;;;;;;;;3.90;99.90;;;;;;5013572;28;19909;-74
2023/11/25 05:19:09;;;;;;;;;;;3.80;99.90;;;;;;5013654;28;19921;-75
2023/11/25 05:21:34;;;;;;;;;;;3.80;99.90;;;;;;5012440;28;21890;-75
2023/11/25 05:24:00;;;;;;;;;;;3.90;99.90;;;;;;5005233;28;20331;-74
2023/11/25 05:26:25;;;;;;;;;;;3.80;99.90;;;;;;4999118;28;19913;-74
2023/11/25 05:28:51;;;;;;;;;;;3.80;99.90;;;;;;5011445;28;19909;-74
2023/11/25 05:31:17;;;;;;;;;;;3.90;99.90;;;;;;5013472;28;19918;-74
2023/11/25 05:33:43;;;;;;;;;;;3.80;99.90;;;;;;5013649;28;19988;-75
2023/11/25 05:36:08;;;;;;;;;;;3.80;99.90;;;;;;5013262;28;20016;-74
2023/11/25 05:38:34;;;;;;;;;;;3.80;99.90;;;;;;5013641;28;19916;-74
2023/11/25 05:41:02;;;;;;;;;;;3.70;99.90;;;;;;5013337;28;19917;-74
2023/11/25 05:43:28;;;;;;;;;;;3.70;99.90;;;;;;5013554;28;19913;-75
2023/11/25 05:45:53;;;;;;;;;;;3.70;99.90;;;;;;5013311;28;19929;-74
2023/11/25 05:48:19;;;;;;;;;;;3.70;99.90;;;;;;5011991;28;19939;-74
2023/11/25 05:50:44;;;;;;;;;;;3.70;99.90;;;;;;5013290;28;20000;-74
2023/11/25 05:53:10;;;;;;;;;;;3.60;99.90;;;;;;5010488;28;20008;-74
2023/11/25 05:55:36;;;;;;;;;;;3.60;99.90;;;;;;5012707;28;20036;-74
2023/11/25 05:58:01;;;;;;;;;;;3.60;99.90;;;;;;5017269;28;19957;-74
2023/11/25 06:00:29;;;;;;;;;;;3.50;99.90;;;;;;5017291;28;19910;-74
2023/11/25 06:02:55;;;;;;;;;;;3.50;99.90;;;;;;5017088;28;20399;-74
2023/11/25 06:05:20;;;;;;;;;;;3.40;99.90;;;;;;5017175;28;19910;-74
2023/11/25 06:07:46;;;;;;;;;;;3.50;99.90;;;;;;5017178;28;19919;-74
2023/11/25 06:10:11;;;;;;;;;;;3.40;99.90;;;;;;5015544;28;20369;-74
2023/11/25 06:12:37;;;;;;;;;;;3.40;99.90;;;;;;5010393;28;19960;-74
2023/11/25 06:15:04;;;;;;;;;;;3.40;99.90;;;;;;5005891;28;19910;-74
2023/11/25 06:17:29;;;;;;;;;;;3.40;99.90;;;;;;4997435;28;19945;-74
2023/11/25 06:19:55;;;;;;;;;;;3.50;99.90;;;;;;4997252;28;19914;-74
2023/11/25 06:22:21;;;;;;;;;;;3.40;99.90;;;;;;4997062;28;19957;-74
2023/11/25 06:24:47;;;;;;;;;;;3.40;99.90;;;;;;4997305;28;19910;-74
2023/11/25 06:27:12;;;;;;;;;;;3.50;99.90;;;;;;5008144;28;19937;-74
2023/11/25 06:29:40;;;;;;;;;;;3.50;99.90;;;;;;5016637;28;20015;-74
2023/11/25 06:32:06;;;;;;;;;;;3.50;99.90;;;;;;5016504;28;20491;-74
2023/11/25 06:34:32;;;;;;;;;;;3.50;99.90;;;;;;5016742;28;19960;-74
2023/11/25 06:36:58;;;;;;;;;;;3.50;99.90;;;;;;5016404;28;19910;-75
2023/11/25 06:39:25;;;;;;;;;;;3.40;99.90;;;;;;5016485;28;19917;-74
2023/11/25 06:41:53;;;;;;;;;;;3.50;99.90;;;;;;5016502;28;19909;-74
2023/11/25 06:44:19;;;;;;;;;;;3.50;99.90;;;;;;5016624;28;19919;-74
2023/11/25 06:46:44;;;;;;;;;;;3.50;99.90;;;;;;5016237;28;20020;-74
2023/11/25 06:49:12;;;;;;;;;;;3.50;99.90;;;;;;5016190;28;19992;-75
2023/11/25 06:51:39;;;;;;;;;;;3.40;99.90;;;;;;5016180;28;20304;-75
2023/11/25 06:54:05;;;;;;;;;;;3.40;99.90;;;;;;5008244;28;19961;-74
2023/11/25 06:56:33;;;;;;;;;;;3.40;99.90;;;;;;5015362;28;19909;-74
2023/11/25 06:58:58;;;;;;;;;;;3.30;99.90;;;;;;5016391;28;20000;-74
2023/11/25 07:01:24;;;;;;;;;;;3.30;99.90;;;;;;5016067;28;20384;-75
2023/11/25 07:03:49;;;;;;;;;;;3.30;99.90;;;;;;5030808;28;20372;-75
2023/11/25 07:06:17;;;;;;;;;;;3.30;99.90;;;;;;5015011;28;19917;-75
2023/11/25 07:08:46;;;;;;;;;;;3.30;99.90;;;;;;5014601;28;19914;-74
2023/11/25 07:11:13;;;;;;;;;;;3.30;99.90;;;;;;5015926;28;19909;-74
2023/11/25 07:13:39;;;;;;;;;;;3.30;99.90;;;;;;5015895;28;19913;-74
2023/11/25 07:16:07;;;;;;;;;;;3.30;99.90;;;;;;5015640;28;19910;-75
2023/11/25 07:18:32;;;;;;;;;;;3.30;99.90;;;;;;5015750;28;19913;-75
2023/11/25 07:20:59;;;;;;;;;;;3.30;99.90;;;;;;5015691;28;20083;-74
2023/11/25 07:23:25;;;;;;;;;;;3.30;99.90;;;;;;5015915;28;19909;-74
2023/11/25 07:25:50;;;;;;;;;;;3.30;99.90;;;;;;5015497;28;20261;-74
2023/11/25 07:28:16;;;;;;;;;;;3.30;99.90;;;;;;5015465;28;19920;-74
2023/11/25 07:30:42;;;;;;;;;;;3.40;99.90;;;;;;5015376;28;19917;-75
2023/11/25 07:33:08;;;;;;;;;;;3.40;99.90;;;;;;5015767;28;20444;-74
2023/11/25 07:35:34;;;;;;;;;;;3.50;99.90;;;;;;5015758;28;19967;-74
2023/11/25 07:38:00;;;;;;;;;;;3.50;99.90;;;;;;5015107;28;19913;-74
2023/11/25 07:40:25;;;;;;;;;;;3.50;99.90;;;;;;5015324;28;20444;-74
2023/11/25 07:42:51;;;;;;;;;;;3.50;99.90;;;;;;5015307;28;19964;-75
2023/11/25 07:45:17;;;;;;;;;;;3.60;99.90;;;;;;5015656;28;20000;-74
2023/11/25 07:47:45;;;;;;;;;;;3.60;99.90;;;;;;5015017;28;19924;-74
2023/11/25 07:50:11;;;;;;;;;;;3.60;99.90;;;;;;5015118;28;20407;-74
2023/11/25 07:52:37;;;;;;;;;;;3.70;99.90;;;;;;5014571;28;19910;-74
2023/11/25 07:55:04;;;;;;;;;;;3.80;99.90;;;;;;5000078;28;20397;-75
2023/11/25 07:57:33;;;;;;;;;;;3.80;99.90;;;;;;5015051;28;19909;-75
2023/11/25 07:59:58;;;;;;;;;;;3.90;99.90;;;;;;5014778;28;19910;-74
2023/11/25 08:02:24;;;;;;;;;;;4.00;99.90;;;;;;5013405;28;19910;-74
2023/11/25 08:04:50;;;;;;;;;;;4.10;99.90;;;;;;5014751;28;19910;-74
2023/11/25 08:07:15;;;;;;;;;;;4.20;99.90;;;;;;5010065;28;19917;-75
2023/11/25 08:09:42;;;;;;;;;;;4.30;99.90;;;;;;5003776;28;19910;-75
2023/11/25 08:12:07;;;;;;;;;;;4.50;99.90;;;;;;5001495;28;20000;-74
2023/11/25 08:14:33;;;;;;;;;;;4.60;99.90;;;;;;5015139;28;19945;-74
2023/11/25 08:16:59;;;;;;;;;;;4.80;99.90;;;;;;5014343;28;19917;-74
2023/11/25 08:19:25;;;;;;;;;;;4.90;99.90;;;;;;5014636;28;19918;-75
2023/11/25 08:21:50;;;;;;;;;;;5.00;99.90;;;;;;5014465;28;19959;-75
2023/11/25 08:24:19;;;;;;;;;;;5.10;99.90;;;;;;5014552;28;19952;-74
2023/11/25 08:26:45;;;;;;;;;;;5.10;99.90;;;;;;5014483;28;20059;-74
2023/11/25 08:29:13;;;;;;;;;;;5.20;99.90;;;;;;5014446;28;20004;-74
2023/11/25 08:31:39;;;;;;;;;;;5.10;99.90;;;;;;5014331;28;20403;-74
2023/11/25 08:34:07;;;;;;;;;;;5.20;99.90;;;;;;5014146;28;19910;-75
2023/11/25 08:36:32;;;;;;;;;;;5.20;99.90;;;;;;5014508;28;20694;-74
2023/11/25 08:39:01;;;;;;;;;;;5.20;99.90;;;;;;5014382;28;19910;-74
2023/11/25 08:41:27;;;;;;;;;;;5.10;99.90;;;;;;5014223;28;19909;-75
2023/11/25 08:43:53;;;;;;;;;;;5.20;99.90;;;;;;5014270;28;19910;-74
2023/11/25 08:46:19;;;;;;;;;;;5.20;99.90;;;;;;5028597;28;19921;-75
2023/11/25 08:48:45;;;;;;;;;;;5.20;99.90;;;;;;5006484;28;19953;-75
2023/11/25 08:51:11;;;;;;;;;;;5.20;99.90;;;;;;4994721;28;19995;-74
2023/11/25 08:53:44;;;;;;;;;;;5.30;99.90;;;;;;4998055;28;19924;-74
2023/11/25 08:56:09;;;;;;;;;;;5.30;99.90;;;;;;5011820;28;19917;-74
2023/11/25 08:58:35;;;;;;;;;;;5.30;99.90;;;;;;5013789;28;20386;-75
2023/11/25 09:01:02;;;;;;;;;;;5.30;99.90;;;;;;5014238;28;19972;-75
2023/11/25 09:03:27;;;;;;;;;;;5.40;99.90;;;;;;5013595;28;19910;-74
2023/11/25 09:05:53;;;;;;;;;;;5.40;99.90;;;;;;5013710;28;20408;-74
2023/11/25 09:08:19;;;;;;;;;;;5.40;99.90;;;;;;5013716;28;19913;-74
2023/11/25 09:10:44;;;;;;;;;;;5.40;99.90;;;;;;5013726;28;20300;-74
2023/11/25 09:13:10;;;;;;;;;;;5.40;99.90;;;;;;5013770;28;20360;-75
2023/11/25 09:15:36;;;;;;;;;;;5.40;99.90;;;;;;5013784;28;19917;-75
2023/11/25 09:18:02;;;;;;;;;;;5.50;99.90;;;;;;5013712;28;20395;-74
2023/11/25 09:20:28;;;;;;;;;;;5.60;99.90;;;;;;5013549;28;20016;-74
2023/11/25 09:22:53;;;;;;;;;;;5.90;99.90;;;;;;5013119;28;19909;-75
2023/11/25 09:25:19;;;;;;;;;;;6.10;99.90;;;;;;5013993;28;20003;-75
2023/11/25 09:27:45;;;;;;;;;;;6.30;99.90;;;;;;5012766;28;19914;-75
2023/11/25 09:30:11;;;;;;;;;;;6.40;99.90;;;;;;5013455;28;19910;-75
2023/11/25 09:32:37;;;;;;;;;;;6.50;99.90;;;;;;5013157;28;20385;-74
2023/11/25 09:35:03;;;;;;;;;;;6.60;99.90;;;;;;5013806;28;20395;-74
2023/11/25 09:37:30;;;;;;;;;;;6.60;99.90;;;;;;5013781;28;19914;-74
2023/11/25 09:39:55;;;;;;;;;;;6.60;99.90;;;;;;5013706;28;19932;-75
2023/11/25 09:42:21;;;;;;;;;;;6.80;99.90;;;;;;5013352;28;19910;-75
2023/11/25 09:44:48;;;;;;;;;;;6.90;99.90;;;;;;5013208;28;19967;-74
2023/11/25 09:47:14;;;;;;;;;;;6.90;99.90;;;;;;5008924;28;19922;-74
2023/11/25 09:49:40;;;;;;;;;;;7.00;99.90;;;;;;5002320;28;19910;-75
2023/11/25 09:52:09;;;;;;;;;;;7.10;99.90;;;;;;4993671;28;19910;-74
2023/11/25 09:54:35;;;;;;;;;;;7.10;99.90;;;;;;4999685;28;19920;-75
2023/11/25 09:57:01;;;;;;;;;;;7.00;99.90;;;;;;5028658;28;19910;-74
2023/11/25 09:59:27;;;;;;;;;;;7.00;99.90;;;;;;5012060;28;19910;-75
2023/11/25 10:01:52;;;;;;;;;;;6.80;99.90;;;;;;5013220;28;19916;-74
2023/11/25 10:04:18;;;;;;;;;;;6.70;99.90;;;;;;5012288;28;19913;-74
2023/11/25 10:06:47;;;;;;;;;;;6.70;99.90;;;;;;5013500;28;20003;-74
2023/11/25 10:09:12;;;;;;;;;;;6.80;99.90;;;;;;5013033;28;19909;-74
2023/11/25 10:11:42;;;;;;;;;;;6.90;99.90;;;;;;5007027;28;20369;-74
2023/11/25 10:14:13;;;;;;;;;;;7.10;99.90;;;;;;5013105;28;19996;-74
2023/11/25 10:16:44;;;;;;;;;;;7.10;99.90;;;;;;5013343;28;19914;-75
2023/11/25 10:19:22;;;;;;;;;;;7.10;99.90;;;;;;5012998;28;19917;-75
2023/11/25 10:21:48;;;;;;;;;;;7.00;99.90;;;;;;5006493;28;19914;-74
2023/11/25 10:24:15;;;;;;;;;;;7.10;99.90;;;;;;5011858;28;20299;-75
2023/11/25 10:26:41;;;;;;;;;;;7.20;99.90;;;;;;5013067;28;20467;-74
2023/11/25 10:29:09;;;;;;;;;;;7.30;99.90;;;;;;5011960;28;20280;-74
2023/11/25 10:31:35;;;;;;;;;;;7.40;99.90;;;;;;5009309;28;19924;-75
2023/11/25 10:34:01;;;;;;;;;;;7.60;99.90;;;;;;5003983;28;20331;-75
2023/11/25 10:36:28;;;;;;;;;;;7.80;99.90;;;;;;5013351;28;19956;-75
2023/11/25 10:38:54;;;;;;;;;;;8.00;99.90;;;;;;5013503;28;19959;-74
2023/11/25 10:41:20;;;;;;;;;;;7.90;99.90;;;;;;5016636;28;19909;-74
2023/11/25 10:43:46;;;;;;;;;;;7.90;99.90;;;;;;5016384;28;19910;-74
2023/11/25 10:46:12;;;;;;;;;;;7.70;99.90;;;;;;5016296;28;19918;-74
2023/11/25 10:48:38;;;;;;;;;;;7.60;99.90;;;;;;5016366;28;19910;-75
2023/11/25 10:51:08;;;;;;;;;;;7.60;99.90;;;;;;5016602;28;19996;-75
2023/11/25 10:53:36;;;;;;;;;;;7.60;99.90;;;;;;5012143;28;20016;-74
2023/11/25 10:56:03;;;;;;;;;;;7.40;99.90;;;;;;5012743;28;19910;-75
2023/11/25 10:58:30;;;;;;;;;;;7.50;99.90;;;;;;5016146;28;20007;-75
2023/11/25 11:00:57;;;;;;;;;;;7.50;99.90;;;;;;5016095;28;19959;-75
2023/11/25 11:03:47;;;;;;;;;;;7.60;99.90;;;;;;5016048;28;19918;-75
2023/11/25 11:06:16;;;;;;;;;;;7.80;99.90;;;;;;5006041;28;20269;-75
2023/11/25 11:08:44;;;;;;;;;;;7.80;99.90;;;;;;5014428;28;19910;-75
2023/11/25 11:11:16;;;;;;;;;;;8.20;99.90;;;;;;5015980;28;19913;-75
2023/11/25 11:13:42;;;;;;;;;;;8.50;99.90;;;;;;5015760;28;19913;-75
2023/11/25 11:16:32;;;;;;;;;;;8.60;99.90;;;;;;5016072;28;20288;-75
2023/11/25 11:18:59;;;;;;;;;;;8.80;99.90;;;;;;5012861;28;19918;-76
2023/11/25 11:21:28;;;;;;;;;;;9.00;99.90;;;;;;5015681;28;20345;-74
2023/11/25 11:23:53;;;;;;;;;;;9.00;99.90;;;;;;5015646;28;20395;-75
2023/11/25 11:26:23;;;;;;;;;;;9.00;99.90;;;;;;5015498;28;20016;-75
2023/11/25 11:28:57;;;;;;;;;;;9.10;99.90;;;;;;5014871;28;19971;-75
2023/11/25 11:31:25;;;;;;;;;;;9.00;99.90;;;;;;5014153;28;19918;-75
2023/11/25 11:33:51;;;;;;;;;;;9.10;99.90;;;;;;5015466;28;19910;-75
2023/11/25 11:36:20;;;;;;;;;;;9.00;99.90;;;;;;5014073;28;19913;-75
2023/11/25 11:38:46;;;;;;;;;;;9.20;99.90;;;;;;5015549;28;19922;-75
2023/11/25 11:41:13;;;;;;;;;;;9.30;99.90;;;;;;5015410;28;19913;-75
2023/11/25 11:43:39;;;;;;;;;;;9.40;99.90;;;;;;5015263;28;19982;-75
2023/11/25 11:46:04;;;;;;;;;;;9.60;99.90;;;;;;5014845;28;19914;-75
2023/11/25 11:48:30;;;;;;;;;;;9.50;99.90;;;;;;5015108;28;19917;-75
2023/11/25 11:50:57;;;;;;;;;;;9.50;99.90;;;;;;5015034;28;19910;-75
2023/11/25 11:53:25;;;;;;;;;;;9.60;99.90;;;;;;5011745;28;19910;-75
2023/11/25 11:55:58;;;;;;;;;;;9.60;99.90;;;;;;5010574;28;19914;-75
2023/11/25 11:58:25;;;;;;;;;;;9.60;99.90;;;;;;5015103;28;19909;-75
2023/11/25 12:00:54;;;;;;;;;;;9.60;99.90;;;;;;5030137;28;19999;-75
2023/11/25 12:03:19;;;;;;;;;;;9.60;99.90;;;;;;5014725;28;20401;-75
2023/11/25 12:05:45;;;;;;;;;;;9.60;99.90;;;;;;5014924;28;19910;-75
2023/11/25 12:08:11;;;;;;;;;;;9.40;99.90;;;;;;5014715;28;20343;-75
2023/11/25 12:10:37;;;;;;;;;;;9.40;99.90;;;;;;5014980;28;19909;-75
2023/11/25 12:13:03;;;;;;;;;;;9.30;99.90;;;;;;5014743;28;20004;-75
2023/11/25 12:15:32;;;;;;;;;;;9.20;99.90;;;;;;5014871;28;19963;-75
2023/11/25 12:17:58;;;;;;;;;;;9.10;99.90;;;;;;5014726;28;20000;-75
2023/11/25 12:20:26;;;;;;;;;;;9.20;99.90;;;;;;5014689;28;19952;-75
2023/11/25 12:22:51;;;;;;;;;;;9.20;99.90;;;;;;5014577;28;19909;-75
2023/11/25 12:25:18;;;;;;;;;;;9.30;99.90;;;;;;5014529;28;19968;-75
2023/11/25 12:28:03;;;;;;;;;;;9.30;99.90;;;;;;5010515;28;19921;-75
2023/11/25 12:30:28;;;;;;;;;;;9.50;99.90;;;;;;5029708;28;20009;-75
2023/11/25 12:32:54;;;;;;;;;;;9.60;99.90;;;;;;5014246;28;20372;-75
2023/11/25 12:35:20;;;;;;;;;;;9.70;99.90;;;;;;5014536;28;20415;-74
2023/11/25 12:37:47;;;;;;;;;;;9.60;99.90;;;;;;5014243;28;19949;-75
2023/11/25 12:40:18;;;;;;;;;;;9.50;99.90;;;;;;5014371;28;19996;-74
2023/11/25 12:42:44;;;;;;;;;;;9.40;99.90;;;;;;5014449;28;19909;-75
2023/11/25 12:45:10;;;;;;;;;;;9.20;99.90;;;;;;5014372;28;19955;-75
2023/11/25 12:47:50;;;;;;;;;;;9.20;99.90;;;;;;5014545;28;19964;-75
2023/11/25 12:50:17;;;;;;;;;;;9.10;99.90;;;;;;5013848;28;19936;-75
2023/11/25 12:52:45;;;;;;;;;;;9.00;99.90;;;;;;5013224;28;19996;-75
2023/11/25 12:55:12;;;;;;;;;;;9.00;99.90;;;;;;5003234;28;20005;-75
2023/11/25 12:57:37;;;;;;;;;;;8.90;99.90;;;;;;5013236;28;20372;-75
2023/11/25 13:00:08;;;;;;;;;;;8.90;99.90;;;;;;5013885;28;19959;-75
2023/11/25 13:02:34;;;;;;;;;;;8.80;99.90;;;;;;5012927;28;19917;-75
2023/11/25 13:05:01;;;;;;;;;;;8.90;99.90;;;;;;5014032;28;19910;-75
2023/11/25 13:07:28;;;;;;;;;;;8.90;99.90;;;;;;5013221;28;19914;-75
2023/11/25 13:09:53;;;;;;;;;;;8.80;99.90;;;;;;5013054;28;20296;-75
2023/11/25 13:12:19;;;;;;;;;;;8.70;99.90;;;;;;5013897;28;19913;-74
2023/11/25 13:14:44;;;;;;;;;;;8.70;99.90;;;;;;5013853;28;19909;-75
2023/11/25 13:17:10;;;;;;;;;;;8.70;99.90;;;;;;5013751;28;20012;-75
2023/11/25 13:19:35;;;;;;;;;;;8.60;99.90;;;;;;5013770;28;19920;-75
2023/11/25 13:22:01;;;;;;;;;;;8.50;99.90;;;;;;5013376;28;19909;-74
2023/11/25 13:24:26;;;;;;;;;;;8.50;99.90;;;;;;5013891;28;19916;-75
2023/11/25 13:26:52;;;;;;;;;;;8.40;99.90;;;;;;5013333;28;19913;-75
2023/11/25 13:29:17;;;;;;;;;;;8.30;99.90;;;;;;5013475;28;19910;-74
2023/11/25 13:31:43;;;;;;;;;;;8.30;99.90;;;;;;5012089;28;19918;-75
2023/11/25 13:34:09;;;;;;;;;;;8.30;99.90;;;;;;5013399;28;19952;-75
2023/11/25 13:36:34;;;;;;;;;;;8.20;99.90;;;;;;5013698;28;19909;-75
2023/11/25 13:39:00;;;;;;;;;;;8.20;99.90;;;;;;5013514;28;19949;-75
2023/11/25 13:41:26;;;;;;;;;;;8.10;99.90;;;;;;5013632;28;19916;-75
2023/11/25 13:43:52;;;;;;;;;;;8.10;99.90;;;;;;5013046;28;19914;-75
2023/11/25 13:46:18;;;;;;;;;;;8.10;99.90;;;;;;5013302;28;19972;-75
2023/11/25 13:48:44;;;;;;;;;;;7.90;99.90;;;;;;5013273;28;19909;-75
2023/11/25 13:51:09;;;;;;;;;;;7.80;99.90;;;;;;5013374;28;19909;-75
2023/11/25 13:53:35;;;;;;;;;;;7.60;99.90;;;;;;5009887;28;19949;-75
2023/11/25 13:56:00;;;;;;;;;;;7.50;99.90;;;;;;5006485;28;19910;-75
2023/11/25 13:58:27;;;;;;;;;;;7.40;99.90;;;;;;5013302;28;19917;-75
2023/11/25 14:00:53;;;;;;;;;;;7.30;99.90;;;;;;5013304;28;20406;-75
2023/11/25 14:03:18;;;;;;;;;;;7.20;99.90;;;;;;5012301;28;19916;-75
2023/11/25 14:05:45;;;;;;;;;;;7.10;99.90;;;;;;5013315;28;19909;-75
2023/11/25 14:08:14;;;;;;;;;;;7.00;99.90;;;;;;5013115;28;19913;-74
2023/11/25 14:10:42;;;;;;;;;;;6.90;99.90;;;;;;5012978;28;19913;-75
2023/11/25 14:13:08;;;;;;;;;;;6.90;99.90;;;;;;5013215;28;19931;-75
2023/11/25 14:15:34;;;;;;;;;;;6.80;99.90;;;;;;5016669;28;20460;-75
2023/11/25 14:18:01;;;;;;;;;;;6.70;99.90;;;;;;5015918;28;19953;-74
2023/11/25 14:20:27;;;;;;;;;;;6.70;99.90;;;;;;5016811;28;20466;-75
2023/11/25 14:22:53;;;;;;;;;;;6.60;99.90;;;;;;5017061;28;19909;-75
2023/11/25 14:25:19;;;;;;;;;;;6.60;99.90;;;;;;5015551;28;19959;-74
2023/11/25 14:27:48;;;;;;;;;;;6.60;99.90;;;;;;5016400;28;20008;-75